createdAt,value
2022-12-15T00:02:23.195Z,16.83
2022-12-15T00:05:08.650Z,16.40
2022-12-15T00:07:53.953Z,15.98
2022-12-15T00:10:39.740Z,16.45
2022-12-15T00:13:32.663Z,15.98
2022-12-15T00:16:18.126Z,15.52
2022-12-15T00:19:03.401Z,15.30
2022-12-15T00:21:48.923Z,15.95
2022-12-15T00:24:34.426Z,15.52
2022-12-15T00:27:19.863Z,15.75
2022-12-15T00:30:05.314Z,15.43
2022-12-15T00:32:50.867Z,16.02
2022-12-15T00:35:36.271Z,15.98
2022-12-15T00:38:29.724Z,15.60
2022-12-15T00:40:59.669Z,15.25
2022-12-15T00:43:34.924Z,15.23
2022-12-15T00:46:21.559Z,14.77
2022-12-15T00:48:49.019Z,15.50
2022-12-15T00:51:16.611Z,15.15
2022-12-15T00:54:02.252Z,15.43
2022-12-15T00:56:48.294Z,14.70
2022-12-15T00:59:34.281Z,15.93
2022-12-15T01:02:20.335Z,15.07
2022-12-15T01:05:06.376Z,14.27
2022-12-15T01:07:52.282Z,15.82
2022-12-15T01:10:37.933Z,15.80
2022-12-15T01:13:24.429Z,15.52
2022-12-15T01:16:10.063Z,16.13
2022-12-15T01:18:55.567Z,15.65
2022-12-15T01:21:24.914Z,16.50
2022-12-15T01:23:52.947Z,16.52
2022-12-15T01:26:20.259Z,15.43
2022-12-15T01:28:47.044Z,16.17
2022-12-15T01:31:14.386Z,15.73
2022-12-15T01:33:42.779Z,15.85
2022-12-15T01:36:10.606Z,16.60
2022-12-15T01:38:37.928Z,16.75
2022-12-15T01:41:07.976Z,16.42
2022-12-15T01:43:38.049Z,16.15
2022-12-15T01:46:14.013Z,15.63
2022-12-15T01:48:59.849Z,14.98
2022-12-15T01:51:33.740Z,14.32
2022-12-15T01:54:06.437Z,12.48
2022-12-15T01:56:38.143Z,13.07
2022-12-15T01:59:08.927Z,13.95
2022-12-15T02:01:35.837Z,12.82
2022-12-15T02:04:03.515Z,13.27
2022-12-15T02:06:30.697Z,12.57
2022-12-15T02:09:00.029Z,12.90
2022-12-15T02:11:29.928Z,12.05
2022-12-15T02:14:03.498Z,12.55
2022-12-15T02:16:48.439Z,11.45
2022-12-15T02:19:40.227Z,12.25
2022-12-15T02:22:18.305Z,11.77
2022-12-15T02:24:55.234Z,11.55
2022-12-15T02:27:30.949Z,12.88
2022-12-15T02:30:17.270Z,12.45
2022-12-15T02:33:13.868Z,12.80
2022-12-15T02:36:09.479Z,11.15
2022-12-15T02:38:38.891Z,12.30
2022-12-15T02:41:26.534Z,12.32
2022-12-15T02:43:53.547Z,12.13
2022-12-15T02:46:41.756Z,12.43
2022-12-15T02:49:40.783Z,12.40
2022-12-15T02:52:27.083Z,11.85
2022-12-15T02:55:27.298Z,12.27
2022-12-15T02:58:02.165Z,12.23
2022-12-15T03:00:35.461Z,12.85
2022-12-15T03:03:02.399Z,12.23
2022-12-15T03:05:31.884Z,12.38
2022-12-15T03:07:58.655Z,12.45
2022-12-15T03:10:26.457Z,12.65
2022-12-15T03:12:54.552Z,12.20
2022-12-15T03:15:21.634Z,12.50
2022-12-15T03:17:48.381Z,12.68
2022-12-15T03:20:16.027Z,12.52
2022-12-15T03:22:42.755Z,13.10
2022-12-15T03:25:09.697Z,12.85
2022-12-15T03:27:37.952Z,13.32
2022-12-15T03:30:05.870Z,12.68
2022-12-15T03:32:32.601Z,13.38
2022-12-15T03:34:59.342Z,12.35
2022-12-15T03:37:26.099Z,12.00
2022-12-15T03:39:52.777Z,12.10
2022-12-15T03:42:39.609Z,11.93
2022-12-15T03:45:06.865Z,12.65
2022-12-15T03:47:33.748Z,12.38
2022-12-15T03:50:00.520Z,12.57
2022-12-15T03:52:27.372Z,13.05
2022-12-15T03:54:54.108Z,12.88
2022-12-15T03:57:21.032Z,12.43
2022-12-15T03:59:47.753Z,12.60
2022-12-15T04:02:14.723Z,13.23
2022-12-15T04:04:41.584Z,13.52
2022-12-15T04:07:09.413Z,13.52
2022-12-15T04:09:37.138Z,13.52
2022-12-15T04:12:03.939Z,12.20
2022-12-15T04:14:30.822Z,12.43
2022-12-15T04:16:57.949Z,13.35
2022-12-15T04:19:43.399Z,12.85
2022-12-15T04:22:16.368Z,12.93
2022-12-15T04:25:03.005Z,13.27
2022-12-15T04:27:48.289Z,14.20
2022-12-15T04:30:33.942Z,13.93
2022-12-15T04:33:20.342Z,13.95
2022-12-15T04:36:06.559Z,13.60
2022-12-15T04:38:52.026Z,15.05
2022-12-15T04:41:39.922Z,14.98
2022-12-15T04:44:25.517Z,14.23
2022-12-15T04:47:11.120Z,15.02
2022-12-15T04:49:56.420Z,15.65
2022-12-15T04:52:42.033Z,15.63
2022-12-15T04:55:27.638Z,16.20
2022-12-15T04:58:13.074Z,15.77
2022-12-15T05:00:58.698Z,16.20
2022-12-15T05:03:44.068Z,15.63
2022-12-15T05:06:29.574Z,16.63
2022-12-15T05:09:15.156Z,16.88
2022-12-15T05:12:00.401Z,16.85
2022-12-15T05:14:45.634Z,17.95
2022-12-15T05:17:41.198Z,17.15
2022-12-15T05:20:27.553Z,17.70
2022-12-15T05:23:16.673Z,17.98
2022-12-15T05:26:03.130Z,17.70
2022-12-15T05:28:48.824Z,17.27
2022-12-15T05:31:34.660Z,17.88
2022-12-15T05:34:05.488Z,18.42
2022-12-15T05:36:33.191Z,17.65
2022-12-15T05:39:00.034Z,17.88
2022-12-15T05:41:26.940Z,17.40
2022-12-15T05:43:53.750Z,18.13
2022-12-15T05:46:20.671Z,17.13
2022-12-15T05:48:47.702Z,16.98
2022-12-15T05:51:15.281Z,16.73
2022-12-15T05:53:42.803Z,16.92
2022-12-15T05:56:12.295Z,17.35
2022-12-15T05:58:44.816Z,17.75
2022-12-15T06:01:17.539Z,17.55
2022-12-15T06:03:44.884Z,17.58
2022-12-15T06:06:13.185Z,18.90
2022-12-15T06:08:42.757Z,17.98
2022-12-15T06:11:14.261Z,18.98
2022-12-15T06:13:41.077Z,18.02
2022-12-15T06:16:12.105Z,19.73
2022-12-15T06:18:50.514Z,18.15
2022-12-15T06:21:20.217Z,18.88
2022-12-15T06:23:48.082Z,18.33
2022-12-15T06:26:22.943Z,19.27
2022-12-15T06:28:50.423Z,18.30
2022-12-15T06:31:19.792Z,18.38
2022-12-15T06:33:46.524Z,19.35
2022-12-15T06:36:15.523Z,18.83
2022-12-15T06:38:45.671Z,18.50
2022-12-15T06:41:18.981Z,18.63
2022-12-15T06:43:58.309Z,19.35
2022-12-15T06:46:26.688Z,19.17
2022-12-15T06:48:53.671Z,19.08
2022-12-15T06:51:20.661Z,19.67
2022-12-15T06:53:54.085Z,19.92
2022-12-15T06:56:27.278Z,15.45
2022-12-15T06:58:59.360Z,20.55
2022-12-15T07:01:26.581Z,20.60
2022-12-15T07:03:54.101Z,20.35
2022-12-15T07:06:21.303Z,21.30
2022-12-15T07:08:53.929Z,19.67
2022-12-15T07:11:21.813Z,20.63
2022-12-15T07:13:52.984Z,20.65
2022-12-15T07:16:21.559Z,20.63
2022-12-15T07:18:49.489Z,20.45
2022-12-15T07:21:16.655Z,21.52
2022-12-15T07:23:54.766Z,21.65
2022-12-15T07:26:23.711Z,21.55
2022-12-15T07:28:50.581Z,21.50
2022-12-15T07:31:18.132Z,21.35
2022-12-15T07:33:45.239Z,20.48
2022-12-15T07:36:12.117Z,21.70
2022-12-15T07:38:38.978Z,21.90
2022-12-15T07:41:07.773Z,21.60
2022-12-15T07:43:35.593Z,21.40
2022-12-15T07:46:04.032Z,20.58
2022-12-15T07:48:31.390Z,22.75
2022-12-15T07:51:07.236Z,21.48
2022-12-15T07:53:36.554Z,21.60
2022-12-15T07:56:08.068Z,22.33
2022-12-15T07:58:36.033Z,21.98
2022-12-15T08:01:05.638Z,21.73
2022-12-15T08:03:33.249Z,21.42
2022-12-15T08:06:05.484Z,22.63
2022-12-15T08:08:32.966Z,23.08
2022-12-15T08:11:03.899Z,22.92
2022-12-15T08:14:01.291Z,23.70
2022-12-15T08:16:17.552Z,23.27
2022-12-15T08:18:44.325Z,24.13
2022-12-15T08:21:11.868Z,24.00
2022-12-15T08:23:40.338Z,24.00
2022-12-15T08:26:09.769Z,23.70
2022-12-15T08:28:37.838Z,23.75
2022-12-15T08:31:05.192Z,24.98
2022-12-15T08:33:33.384Z,25.13
2022-12-15T08:36:03.132Z,24.83
2022-12-15T08:38:32.968Z,24.33
2022-12-15T08:41:07.764Z,23.75
2022-12-15T08:43:34.855Z,24.40
2022-12-15T08:46:01.945Z,24.70
2022-12-15T08:48:28.964Z,23.67
2022-12-15T08:50:56.826Z,24.88
2022-12-15T08:53:32.075Z,24.50
2022-12-15T08:56:04.619Z,24.55
2022-12-15T08:58:31.501Z,25.23
2022-12-15T09:01:10.688Z,25.17
2022-12-15T09:03:38.062Z,23.92
2022-12-15T09:06:13.561Z,24.35
2022-12-15T09:08:40.799Z,24.98
2022-12-15T09:11:07.550Z,23.90
2022-12-15T09:13:35.659Z,24.90
2022-12-15T09:16:10.629Z,24.85
2022-12-15T09:18:37.771Z,25.48
2022-12-15T09:21:07.208Z,25.08
2022-12-15T09:23:35.646Z,25.23
2022-12-15T09:26:04.885Z,24.98
2022-12-15T09:28:32.194Z,24.30
2022-12-15T09:31:11.549Z,25.77
2022-12-15T09:33:39.349Z,25.67
2022-12-15T09:36:06.837Z,24.55
2022-12-15T09:38:35.088Z,25.15
2022-12-15T09:41:13.926Z,24.85
2022-12-15T09:44:03.216Z,26.00
2022-12-15T09:46:35.989Z,25.58
2022-12-15T09:49:18.785Z,25.40
2022-12-15T09:52:22.086Z,24.42
2022-12-15T09:54:49.154Z,24.73
2022-12-15T09:57:25.787Z,24.20
2022-12-15T10:00:00.717Z,24.67
2022-12-15T10:02:52.495Z,25.17
2022-12-15T10:06:06.796Z,25.10
2022-12-15T10:08:30.643Z,25.70
2022-12-15T10:11:03.079Z,25.20
2022-12-15T10:13:47.461Z,24.70
2022-12-15T10:16:23.132Z,24.77
2022-12-15T10:19:13.358Z,24.75
2022-12-15T10:21:40.677Z,24.60
2022-12-15T10:24:31.664Z,24.38
2022-12-15T10:27:22.865Z,24.58
2022-12-15T10:30:09.958Z,23.55
2022-12-15T10:32:57.909Z,24.95
2022-12-15T10:35:29.419Z,24.42
2022-12-15T10:38:04.973Z,24.52
2022-12-15T10:40:56.436Z,24.65
2022-12-15T10:43:29.524Z,23.90
2022-12-15T10:46:18.987Z,25.27
2022-12-15T10:49:16.416Z,25.23
2022-12-15T10:51:50.116Z,24.00
2022-12-15T10:54:18.871Z,18.38
2022-12-15T10:56:57.247Z,24.63
2022-12-15T10:59:36.374Z,25.05
2022-12-15T11:02:24.612Z,25.02
2022-12-15T11:05:04.566Z,23.45
2022-12-15T11:07:38.624Z,24.23
2022-12-15T11:10:16.508Z,24.13
2022-12-15T11:12:58.183Z,25.17
2022-12-15T11:15:31.456Z,25.45
2022-12-15T11:17:58.364Z,24.40
2022-12-15T11:20:34.226Z,25.00
2022-12-15T11:23:16.308Z,25.05
2022-12-15T11:25:53.783Z,24.98
2022-12-15T11:28:41.191Z,24.60
2022-12-15T11:31:41.819Z,26.30
2022-12-15T11:34:27.615Z,26.20
2022-12-15T11:36:59.760Z,25.90
2022-12-15T11:39:56.429Z,24.83
2022-12-15T11:42:45.864Z,26.00
2022-12-15T11:45:33.159Z,26.90
2022-12-15T11:48:10.679Z,26.50
2022-12-15T11:50:58.911Z,27.65
2022-12-15T11:53:36.798Z,27.98
2022-12-15T11:56:28.264Z,28.48
2022-12-15T11:59:32.145Z,30.30
2022-12-15T12:02:29.877Z,28.75
2022-12-15T12:05:20.120Z,31.17
2022-12-15T12:07:51.902Z,29.60
2022-12-15T12:10:21.467Z,32.03
2022-12-15T12:13:12.894Z,31.17
2022-12-15T12:16:09.303Z,29.90
2022-12-15T12:18:44.077Z,31.60
2022-12-15T12:21:23.167Z,31.38
2022-12-15T12:23:56.346Z,33.65
2022-12-15T12:26:26.568Z,31.92
2022-12-15T12:29:16.492Z,31.27
2022-12-15T12:32:04.099Z,32.13
2022-12-15T12:34:37.918Z,31.67
2022-12-15T12:37:18.763Z,31.98
2022-12-15T12:39:46.400Z,32.75
2022-12-15T12:42:40.002Z,33.22
2022-12-15T12:45:11.008Z,32.60
2022-12-15T12:47:44.736Z,32.55
2022-12-15T12:50:22.494Z,34.92
2022-12-15T12:52:52.572Z,33.42
2022-12-15T12:55:27.504Z,34.28
2022-12-15T12:57:55.754Z,33.03
2022-12-15T13:00:27.219Z,34.38
2022-12-15T13:03:18.469Z,33.45
2022-12-15T13:05:48.820Z,33.25
2022-12-15T13:08:26.908Z,35.33
2022-12-15T13:10:55.379Z,34.25
2022-12-15T13:13:31.878Z,32.25
2022-12-15T13:16:13.906Z,33.30
2022-12-15T13:19:02.176Z,33.08
2022-12-15T13:21:58.444Z,32.75
2022-12-15T13:24:33.681Z,32.50
2022-12-15T13:27:09.465Z,34.50
2022-12-15T13:29:53.523Z,32.63
2022-12-15T13:32:36.610Z,33.17
2022-12-15T13:35:12.584Z,30.58
2022-12-15T13:38:08.438Z,30.20
2022-12-15T13:40:35.331Z,30.92
2022-12-15T13:43:05.160Z,31.20
2022-12-15T13:45:38.091Z,30.95
2022-12-15T13:48:45.901Z,31.67
2022-12-15T13:51:24.163Z,31.35
2022-12-15T13:54:12.218Z,32.20
2022-12-15T13:57:14.724Z,30.25
2022-12-15T14:00:07.147Z,29.83
2022-12-15T14:02:36.303Z,31.90
2022-12-15T14:05:18.838Z,30.15
2022-12-15T14:08:10.856Z,32.03
2022-12-15T14:10:43.069Z,32.25
2022-12-15T14:13:24.562Z,33.10
2022-12-15T14:15:55.651Z,31.30
2022-12-15T14:18:25.740Z,32.15
2022-12-15T14:20:53.033Z,33.58
2022-12-15T14:23:21.667Z,32.55
2022-12-15T14:26:01.834Z,31.42
2022-12-15T14:28:32.421Z,33.80
2022-12-15T14:31:11.798Z,31.65
2022-12-15T14:33:42.006Z,32.13
2022-12-15T14:36:12.353Z,33.60
2022-12-15T14:38:50.782Z,32.15
2022-12-15T14:41:24.369Z,31.38
2022-12-15T14:44:32.158Z,24.52
2022-12-15T14:46:47.885Z,33.13
2022-12-15T14:49:21.748Z,33.25
2022-12-15T14:51:52.164Z,32.95
2022-12-15T14:54:49.175Z,31.85
2022-12-15T14:57:40.535Z,30.50
2022-12-15T15:00:27.673Z,31.10
2022-12-15T15:03:19.926Z,32.92
2022-12-15T15:05:50.116Z,33.90
2022-12-15T15:08:33.462Z,31.90
2022-12-15T15:11:18.068Z,32.72
2022-12-15T15:13:45.939Z,31.98
2022-12-15T15:16:18.913Z,32.65
2022-12-15T15:18:50.708Z,31.80
2022-12-15T15:21:23.953Z,31.75
2022-12-15T15:24:09.585Z,32.10
2022-12-15T15:26:36.951Z,33.05
2022-12-15T15:29:05.525Z,33.33
2022-12-15T15:31:41.487Z,32.15
2022-12-15T15:34:09.952Z,32.55
2022-12-15T15:36:38.601Z,32.22
2022-12-15T15:39:13.737Z,31.92
2022-12-15T15:41:40.506Z,32.40
2022-12-15T15:44:14.319Z,32.25
2022-12-15T15:46:48.327Z,26.05
2022-12-15T15:49:19.200Z,31.50
2022-12-15T15:51:46.381Z,31.63
2022-12-15T15:54:23.670Z,30.95
2022-12-15T15:56:50.487Z,31.52
2022-12-15T15:59:21.131Z,32.22
2022-12-15T16:01:54.463Z,30.95
2022-12-15T16:04:22.074Z,25.03
2022-12-15T16:06:50.369Z,31.30
2022-12-15T16:09:17.166Z,31.35
2022-12-15T16:11:45.878Z,30.17
2022-12-15T16:14:14.330Z,31.40
2022-12-15T16:16:41.977Z,31.83
2022-12-15T16:19:08.975Z,31.33
2022-12-15T16:21:36.324Z,30.55
2022-12-15T16:24:15.184Z,30.70
2022-12-15T16:26:48.586Z,31.50
2022-12-15T16:29:17.341Z,33.13
2022-12-15T16:31:47.635Z,32.50
2022-12-15T16:34:19.335Z,33.95
2022-12-15T16:36:46.275Z,34.95
2022-12-15T16:39:27.664Z,34.65
2022-12-15T16:41:56.379Z,36.22
2022-12-15T16:44:24.608Z,36.75
2022-12-15T16:46:51.449Z,35.53
2022-12-15T16:49:18.342Z,38.08
2022-12-15T16:51:51.030Z,35.42
2022-12-15T16:54:23.067Z,35.53
2022-12-15T16:56:50.082Z,36.22
2022-12-15T16:59:35.705Z,38.33
2022-12-15T17:02:29.468Z,36.20
2022-12-15T17:04:57.387Z,36.08
2022-12-15T17:07:26.992Z,37.35
2022-12-15T17:09:53.776Z,36.72
2022-12-15T17:12:20.590Z,36.08
2022-12-15T17:14:47.493Z,37.38
2022-12-15T17:17:16.684Z,36.38
2022-12-15T17:19:52.707Z,35.53
2022-12-15T17:22:30.325Z,36.20
2022-12-15T17:24:57.077Z,36.55
2022-12-15T17:27:28.714Z,35.70
2022-12-15T17:29:57.449Z,36.22
2022-12-15T17:32:24.212Z,36.58
2022-12-15T17:34:51.931Z,36.55
2022-12-15T17:37:18.892Z,36.53
2022-12-15T17:39:51.087Z,36.53
2022-12-15T17:42:20.584Z,37.65
2022-12-15T17:44:48.793Z,37.38
2022-12-15T17:47:16.575Z,36.30
2022-12-15T17:49:43.974Z,36.67
2022-12-15T17:52:13.424Z,36.45
2022-12-15T17:54:40.180Z,34.67
2022-12-15T17:57:11.593Z,35.58
2022-12-15T17:59:38.352Z,37.85
2022-12-15T18:02:05.216Z,35.78
2022-12-15T18:04:32.007Z,34.47
2022-12-15T18:07:02.022Z,36.53
2022-12-15T18:09:29.672Z,37.05
2022-12-15T18:11:56.440Z,35.90
2022-12-15T18:14:23.230Z,33.58
2022-12-15T18:16:50.105Z,35.00
2022-12-15T18:19:16.907Z,35.85
2022-12-15T18:21:44.031Z,35.10
2022-12-15T18:24:13.765Z,35.22
2022-12-15T18:26:40.513Z,33.95
2022-12-15T18:29:18.085Z,34.78
2022-12-15T18:31:47.118Z,34.42
2022-12-15T18:34:19.336Z,34.17
2022-12-15T18:36:46.278Z,35.00
2022-12-15T18:39:19.070Z,36.10
2022-12-15T18:41:46.614Z,35.58
2022-12-15T18:44:25.982Z,34.05
2022-12-15T18:46:55.195Z,34.15
2022-12-15T18:49:22.516Z,36.17
2022-12-15T18:51:49.483Z,33.83
2022-12-15T18:54:22.405Z,35.88
2022-12-15T18:56:49.505Z,32.60
2022-12-15T18:59:17.746Z,35.08
2022-12-15T19:01:46.368Z,33.85
2022-12-15T19:04:13.861Z,35.00
2022-12-15T19:06:41.140Z,32.88
2022-12-15T19:09:15.891Z,34.47
2022-12-15T19:12:06.172Z,34.00
2022-12-15T19:14:42.553Z,33.55
2022-12-15T19:17:33.919Z,34.45
2022-12-15T19:20:21.304Z,33.95
2022-12-15T19:22:48.945Z,34.58
2022-12-15T19:25:28.227Z,34.58
2022-12-15T19:27:59.276Z,35.10
2022-12-15T19:30:28.612Z,34.42
2022-12-15T19:32:55.898Z,31.92
2022-12-15T19:35:22.715Z,33.50
2022-12-15T19:37:50.170Z,32.88
2022-12-15T19:40:27.765Z,32.30
2022-12-15T19:42:55.713Z,32.35
2022-12-15T19:45:25.249Z,31.50
2022-12-15T19:47:52.093Z,31.38
2022-12-15T19:50:25.559Z,30.70
2022-12-15T19:52:58.772Z,24.03
2022-12-15T19:55:29.430Z,28.15
2022-12-15T19:57:56.512Z,28.55
2022-12-15T20:00:27.424Z,28.20
2022-12-15T20:02:55.672Z,27.65
2022-12-15T20:05:25.461Z,27.40
2022-12-15T20:07:53.784Z,28.52
2022-12-15T20:10:29.316Z,26.50
2022-12-15T20:12:56.687Z,27.10
2022-12-15T20:15:26.385Z,26.92
2022-12-15T20:17:59.020Z,26.70
2022-12-15T20:20:28.342Z,25.40
2022-12-15T20:22:59.133Z,24.75
2022-12-15T20:25:32.923Z,24.33
2022-12-15T20:28:02.873Z,24.88
2022-12-15T20:30:33.057Z,25.05
2022-12-15T20:33:01.312Z,24.08
2022-12-15T20:35:29.209Z,23.17
2022-12-15T20:37:55.934Z,24.67
2022-12-15T20:40:25.877Z,23.40
2022-12-15T20:42:53.925Z,22.48
2022-12-15T20:45:24.447Z,23.25
2022-12-15T20:47:52.766Z,22.40
2022-12-15T20:50:33.645Z,23.15
2022-12-15T20:53:00.382Z,23.50
2022-12-15T20:55:27.355Z,23.27
2022-12-15T20:57:54.502Z,22.73
2022-12-15T21:00:22.248Z,21.98
2022-12-15T21:02:49.348Z,23.23
2022-12-15T21:05:22.604Z,24.00
2022-12-15T21:07:50.180Z,21.75
2022-12-15T21:10:18.349Z,22.15
2022-12-15T21:12:47.178Z,22.30
2022-12-15T21:15:20.376Z,21.52
2022-12-15T21:17:57.892Z,20.67
2022-12-15T21:20:30.575Z,22.25
2022-12-15T21:22:57.749Z,22.25
2022-12-15T21:25:26.512Z,22.60
2022-12-15T21:27:53.320Z,21.55
2022-12-15T21:30:23.073Z,21.33
2022-12-15T21:32:50.855Z,21.73
2022-12-15T21:35:18.979Z,22.42
2022-12-15T21:37:49.648Z,22.52
2022-12-15T21:40:24.005Z,21.67
2022-12-15T21:42:51.244Z,20.95
2022-12-15T21:45:20.187Z,20.48
2022-12-15T21:48:07.035Z,20.85
2022-12-15T21:50:34.409Z,20.63
2022-12-15T21:53:01.985Z,20.25
2022-12-15T21:55:29.697Z,20.38
2022-12-15T21:57:57.370Z,20.05
2022-12-15T22:00:25.136Z,20.90
2022-12-15T22:02:53.531Z,19.80
2022-12-15T22:05:25.364Z,19.70
2022-12-15T22:07:52.146Z,19.77
2022-12-15T22:10:19.225Z,19.83
2022-12-15T22:12:57.522Z,20.02
2022-12-15T22:15:26.394Z,19.83
2022-12-15T22:17:53.102Z,18.90
2022-12-15T22:20:22.354Z,19.63
2022-12-15T22:22:49.642Z,19.27
2022-12-15T22:25:19.518Z,18.77
2022-12-15T22:27:46.794Z,18.77
2022-12-15T22:30:25.747Z,20.02
2022-12-15T22:32:52.742Z,19.98
2022-12-15T22:35:23.503Z,19.17
2022-12-15T22:37:53.529Z,20.20
2022-12-15T22:40:21.893Z,18.20
2022-12-15T22:42:55.341Z,18.50
2022-12-15T22:45:23.990Z,18.63
2022-12-15T22:47:52.295Z,17.73
2022-12-15T22:50:23.550Z,18.10
2022-12-15T22:52:50.676Z,18.58
2022-12-15T22:55:20.211Z,18.13
2022-12-15T22:57:58.215Z,17.52
2022-12-15T23:00:24.899Z,17.10
2022-12-15T23:02:51.927Z,16.52
2022-12-15T23:05:20.235Z,15.68
2022-12-15T23:07:47.194Z,17.65
2022-12-15T23:10:34.908Z,16.13
2022-12-15T23:13:01.724Z,16.02
2022-12-15T23:15:47.740Z,16.88
2022-12-15T23:18:14.926Z,16.40
2022-12-15T23:20:42.390Z,15.93
2022-12-15T23:23:12.373Z,17.17
2022-12-15T23:25:39.171Z,15.02
2022-12-15T23:28:06.172Z,15.05
2022-12-15T23:30:32.961Z,15.55
2022-12-15T23:32:59.902Z,15.43
2022-12-15T23:35:26.663Z,14.93
2022-12-15T23:37:53.478Z,17.95
2022-12-15T23:40:22.351Z,17.55
2022-12-15T23:42:50.056Z,17.05
2022-12-15T23:45:18.143Z,16.02
2022-12-15T23:47:44.977Z,15.13
2022-12-15T23:50:11.866Z,15.48
2022-12-15T23:52:38.839Z,15.02
2022-12-15T23:55:09.319Z,15.75
2022-12-15T23:57:37.777Z,15.52
